createdAt,value
2018-11-03T00:01:52.795Z,66.40
2018-11-03T00:04:20.875Z,66.30
2018-11-03T00:06:49.560Z,66.40
2018-11-03T00:09:17.812Z,66.40
2018-11-03T00:11:46.000Z,66.30
2018-11-03T00:14:14.209Z,66.40
2018-11-03T00:16:43.728Z,66.40
2018-11-03T00:19:11.572Z,66.40
2018-11-03T00:21:41.367Z,66.50
2018-11-03T00:24:11.065Z,66.40
2018-11-03T00:26:40.755Z,66.40
2018-11-03T00:29:08.822Z,66.30
2018-11-03T00:31:38.537Z,66.40
2018-11-03T00:34:06.560Z,67.20
2018-11-03T00:36:34.430Z,66.40
2018-11-03T00:39:08.333Z,66.40
2018-11-03T00:41:37.180Z,66.40
2018-11-03T00:44:06.091Z,66.40
2018-11-03T00:46:35.775Z,66.40
2018-11-03T00:49:05.193Z,66.30
2018-11-03T00:51:34.305Z,66.40
2018-11-03T00:54:03.109Z,66.40
2018-11-03T00:56:32.695Z,66.40
2018-11-03T00:59:00.930Z,66.40
2018-11-03T01:01:30.903Z,66.30
2018-11-03T01:03:59.651Z,66.30
2018-11-03T01:06:28.910Z,66.30
2018-11-03T01:08:58.843Z,66.40
2018-11-03T01:11:32.994Z,66.30
2018-11-03T01:14:02.492Z,66.40
2018-11-03T01:16:30.726Z,66.40
2018-11-03T01:18:59.106Z,66.30
2018-11-03T01:21:33.974Z,66.30
2018-11-03T01:24:05.736Z,66.40
2018-11-03T01:26:37.991Z,66.30
2018-11-03T01:29:12.664Z,66.10
2018-11-03T01:32:07.988Z,66.20
2018-11-03T01:34:42.210Z,66.30
2018-11-03T01:37:13.022Z,67.10
2018-11-03T01:39:44.075Z,67.10
2018-11-03T01:42:45.210Z,66.20
2018-11-03T01:48:31.463Z,66.20
2018-11-03T01:51:06.362Z,66.50
2018-11-03T01:53:34.672Z,66.50
2018-11-03T01:56:13.833Z,66.40
2018-11-03T01:58:43.802Z,66.50
2018-11-03T02:01:19.015Z,66.40
2018-11-03T02:03:50.752Z,66.30
2018-11-03T02:06:21.286Z,66.20
2018-11-03T02:08:59.432Z,66.30
2018-11-03T02:11:33.847Z,66.30
2018-11-03T02:14:09.997Z,66.30
2018-11-03T02:19:56.656Z,66.30
2018-11-03T02:25:24.209Z,66.30
2018-11-03T02:31:09.157Z,66.90
2018-11-03T02:34:30.392Z,66.20
2018-11-03T02:37:06.034Z,66.40
2018-11-03T02:39:43.239Z,66.50
2018-11-03T02:42:17.995Z,66.50
2018-11-03T02:44:47.682Z,66.60
2018-11-03T02:47:24.242Z,67.20
2018-11-03T02:52:48.237Z,66.30
2018-11-03T02:55:27.349Z,66.40
2018-11-03T02:58:11.185Z,66.30
2018-11-03T03:00:50.904Z,66.40
2018-11-03T03:03:23.629Z,66.40
2018-11-03T03:09:59.885Z,66.30
2018-11-03T03:12:37.317Z,66.50
2018-11-03T03:15:11.087Z,66.50
2018-11-03T03:17:49.286Z,66.50
2018-11-03T03:20:28.389Z,66.50
2018-11-03T03:23:03.654Z,66.40
2018-11-03T03:28:26.511Z,66.30
2018-11-03T03:31:11.573Z,66.40
2018-11-03T03:36:49.871Z,66.50
2018-11-03T03:42:40.073Z,66.50
2018-11-03T03:45:14.476Z,66.40
2018-11-03T03:48:31.436Z,66.30
2018-11-03T03:51:08.569Z,66.40
2018-11-03T03:53:51.799Z,66.50
2018-11-03T03:56:27.944Z,66.50
2018-11-03T03:59:07.336Z,66.50
2018-11-03T04:01:51.159Z,66.40
2018-11-03T04:04:26.917Z,66.40
2018-11-03T04:06:56.058Z,66.40
2018-11-03T04:09:30.135Z,66.30
2018-11-03T04:12:08.085Z,66.40
2018-11-03T04:15:13.584Z,66.40
2018-11-03T04:17:46.420Z,66.40
2018-11-03T04:20:28.497Z,66.40
2018-11-03T04:29:06.856Z,66.20
2018-11-03T04:31:43.967Z,66.40
2018-11-03T04:34:22.772Z,66.40
2018-11-03T04:36:55.528Z,66.30
2018-11-03T04:39:30.842Z,66.40
2018-11-03T04:42:02.740Z,66.20
2018-11-03T04:50:20.607Z,66.30
2018-11-03T04:52:54.245Z,66.50
2018-11-03T05:01:35.659Z,66.40
2018-11-03T05:06:47.644Z,66.20
2018-11-03T05:12:16.298Z,66.30
2018-11-03T05:14:52.750Z,66.30
2018-11-03T05:17:30.768Z,66.20
2018-11-03T05:20:23.252Z,66.30
2018-11-03T05:22:59.600Z,66.30
2018-11-03T05:25:42.481Z,66.20
2018-11-03T05:28:22.508Z,66.30
2018-11-03T05:30:57.020Z,66.40
2018-11-03T05:35:59.412Z,66.30
2018-11-03T05:38:28.957Z,66.30
2018-11-03T05:41:02.546Z,66.20
2018-11-03T05:43:34.444Z,66.30
2018-11-03T05:46:05.306Z,66.30
2018-11-03T05:51:23.536Z,66.20
2018-11-03T05:54:04.800Z,66.20
2018-11-03T05:56:44.172Z,66.20
2018-11-03T05:59:19.613Z,66.20
2018-11-03T06:01:58.880Z,66.20
2018-11-03T06:04:41.275Z,66.20
2018-11-03T06:10:12.707Z,66.10
2018-11-03T06:12:46.826Z,66.20
2018-11-03T06:15:18.805Z,66.20
2018-11-03T06:17:46.817Z,66.20
2018-11-03T06:20:18.348Z,67.00
2018-11-03T06:22:58.045Z,66.20
2018-11-03T06:25:30.761Z,66.10
2018-11-03T06:28:11.586Z,66.20
2018-11-03T06:30:42.954Z,66.30
2018-11-03T06:33:15.156Z,66.80
2018-11-03T06:35:49.260Z,66.20
2018-11-03T06:38:16.809Z,66.10
2018-11-03T06:40:45.288Z,66.20
2018-11-03T06:43:18.330Z,66.20
2018-11-03T06:45:54.075Z,66.10
2018-11-03T06:51:12.839Z,66.20
2018-11-03T06:53:48.000Z,66.80
2018-11-03T06:56:17.672Z,66.20
2018-11-03T06:58:48.054Z,66.00
2018-11-03T07:01:18.932Z,66.00
2018-11-03T07:03:48.405Z,66.10
2018-11-03T07:06:22.444Z,66.00
2018-11-03T07:08:53.664Z,66.10
2018-11-03T07:11:31.966Z,66.10
2018-11-03T07:14:02.682Z,66.00
2018-11-03T07:22:07.372Z,66.10
2018-11-03T07:24:34.875Z,66.10
2018-11-03T07:27:08.333Z,66.10
2018-11-03T07:29:35.917Z,66.00
2018-11-03T07:32:03.466Z,66.00
2018-11-03T07:34:31.031Z,66.00
2018-11-03T07:36:59.979Z,66.00
2018-11-03T07:39:28.055Z,66.00
2018-11-03T07:41:55.637Z,66.00
2018-11-03T07:44:23.299Z,66.00
2018-11-03T07:46:59.544Z,66.00
2018-11-03T07:49:31.416Z,65.40
2018-11-03T07:52:01.855Z,65.90
2018-11-03T07:54:33.875Z,65.90
2018-11-03T07:57:01.402Z,66.00
2018-11-03T07:59:29.342Z,66.00
2018-11-03T08:01:59.563Z,65.90
2018-11-03T08:04:27.152Z,65.80
2018-11-03T08:06:55.471Z,65.70
2018-11-03T08:09:23.005Z,65.80
2018-11-03T08:11:53.472Z,65.70
2018-11-03T08:14:23.284Z,65.80
2018-11-03T08:16:50.868Z,65.60
2018-11-03T08:19:18.992Z,66.30
2018-11-03T08:21:48.587Z,65.60
2018-11-03T08:24:16.721Z,65.60
2018-11-03T08:26:47.619Z,65.50
2018-11-03T08:29:16.488Z,65.50
2018-11-03T08:31:51.488Z,65.40
2018-11-03T08:34:21.864Z,65.50
2018-11-03T08:36:50.466Z,65.50
2018-11-03T08:39:29.830Z,65.50
2018-11-03T08:42:02.221Z,65.50
2018-11-03T08:44:31.100Z,65.40
2018-11-03T08:47:01.039Z,65.50
2018-11-03T08:49:32.495Z,65.50
2018-11-03T08:52:07.479Z,65.50
2018-11-03T08:54:42.911Z,65.50
2018-11-03T08:57:12.180Z,65.40
2018-11-03T08:59:42.460Z,65.40
2018-11-03T09:02:21.532Z,65.40
2018-11-03T09:07:28.839Z,65.40
2018-11-03T09:10:02.369Z,65.40
2018-11-03T09:12:34.328Z,65.40
2018-11-03T09:15:09.054Z,65.40
2018-11-03T09:17:45.154Z,65.50
2018-11-03T09:20:17.386Z,65.40
2018-11-03T09:22:46.288Z,65.40
2018-11-03T09:25:15.476Z,65.40
2018-11-03T09:27:46.925Z,65.40
2018-11-03T09:37:23.141Z,65.40
2018-11-03T09:39:57.096Z,66.10
2018-11-03T09:42:34.998Z,66.10
2018-11-03T09:45:08.888Z,65.90
2018-11-03T09:47:48.665Z,65.80
2018-11-03T09:50:24.378Z,65.70
2018-11-03T09:52:56.302Z,65.60
2018-11-03T09:55:26.257Z,65.50
2018-11-03T09:58:08.336Z,65.40
2018-11-03T10:03:20.905Z,65.40
2018-11-03T10:05:55.139Z,65.40
2018-11-03T10:08:30.069Z,65.40
2018-11-03T10:11:24.382Z,65.40
2018-11-03T10:14:01.712Z,65.40
2018-11-03T10:16:36.965Z,65.30
2018-11-03T10:19:16.281Z,65.40
2018-11-03T10:21:52.298Z,65.40
2018-11-03T10:24:25.788Z,65.50
2018-11-03T10:27:03.773Z,65.40
2018-11-03T10:29:36.421Z,65.40
2018-11-03T10:34:59.176Z,65.40
2018-11-03T10:37:35.557Z,65.40
2018-11-03T10:40:11.664Z,65.40
2018-11-03T10:42:42.480Z,65.40
2018-11-03T10:45:17.094Z,65.40
2018-11-03T10:47:50.394Z,65.50
2018-11-03T10:50:20.444Z,65.40
2018-11-03T10:52:52.103Z,65.40
2018-11-03T10:55:23.448Z,65.50
2018-11-03T10:57:52.780Z,65.40
2018-11-03T11:01:26.881Z,65.40
2018-11-03T11:04:02.686Z,65.40
2018-11-03T11:06:36.002Z,65.40
2018-11-03T11:09:12.411Z,65.60
2018-11-03T11:11:46.868Z,65.60
2018-11-03T11:14:19.745Z,65.60
2018-11-03T11:16:48.853Z,65.50
2018-11-03T11:19:18.911Z,65.40
2018-11-03T11:21:46.545Z,65.30
2018-11-03T11:24:14.418Z,65.30
2018-11-03T11:26:43.208Z,65.30
2018-11-03T11:29:11.761Z,65.20
2018-11-03T11:31:41.748Z,65.20
2018-11-03T11:34:13.539Z,65.30
2018-11-03T11:36:43.929Z,65.40
2018-11-03T11:39:14.106Z,65.30
2018-11-03T11:41:43.483Z,65.30
2018-11-03T11:44:12.271Z,65.30
2018-11-03T11:46:41.792Z,65.30
2018-11-03T11:49:11.232Z,65.40
2018-11-03T11:51:39.803Z,65.40
2018-11-03T11:54:13.093Z,65.40
2018-11-03T11:56:42.556Z,65.30
2018-11-03T11:59:11.953Z,65.40
2018-11-03T12:01:46.752Z,65.30
2018-11-03T12:04:14.752Z,65.40
2018-11-03T12:06:47.089Z,65.40
2018-11-03T12:09:17.535Z,65.30
2018-11-03T12:11:48.329Z,65.80
2018-11-03T12:14:16.433Z,65.40
2018-11-03T12:16:44.563Z,65.40
2018-11-03T12:19:15.105Z,66.10
2018-11-03T12:21:44.898Z,65.30
2018-11-03T12:24:15.796Z,65.40
2018-11-03T12:26:44.144Z,65.40
2018-11-03T12:29:12.136Z,65.20
2018-11-03T12:31:41.380Z,65.30
2018-11-03T12:34:10.095Z,65.20
2018-11-03T12:36:38.441Z,65.30
2018-11-03T12:39:07.014Z,65.20
2018-11-03T12:41:36.284Z,65.20
2018-11-03T12:44:04.520Z,65.10
2018-11-03T12:46:38.555Z,65.30
2018-11-03T12:49:09.552Z,65.40
2018-11-03T12:51:37.799Z,65.30
2018-11-03T12:54:06.126Z,65.10
2018-11-03T12:56:36.275Z,65.20
2018-11-03T12:59:05.036Z,65.30
2018-11-03T13:01:33.480Z,65.20
2018-11-03T13:04:02.642Z,65.30
2018-11-03T13:06:31.940Z,65.20
2018-11-03T13:09:02.372Z,65.20
2018-11-03T13:11:31.308Z,65.20
2018-11-03T13:13:59.509Z,65.40
2018-11-03T13:16:31.800Z,65.40
2018-11-03T13:19:04.505Z,65.60
2018-11-03T13:21:33.402Z,65.50
2018-11-03T13:24:04.250Z,65.40
2018-11-03T13:26:32.900Z,65.20
2018-11-03T13:29:00.726Z,65.20
2018-11-03T13:31:29.390Z,65.30
2018-11-03T13:33:58.000Z,65.40
2018-11-03T13:36:27.800Z,65.50
2018-11-03T13:38:55.691Z,65.40
2018-11-03T13:41:23.852Z,65.10
2018-11-03T13:43:52.167Z,65.40
2018-11-03T13:46:22.649Z,65.40
2018-11-03T13:48:51.585Z,65.40
2018-11-03T13:51:22.064Z,65.00
2018-11-03T13:59:18.614Z,65.20
2018-11-03T14:01:51.648Z,65.20
2018-11-03T14:04:20.289Z,65.00
2018-11-03T14:06:58.772Z,65.10
2018-11-03T14:09:29.043Z,65.10
2018-11-03T14:12:09.370Z,65.10
2018-11-03T14:14:40.445Z,65.20
2018-11-03T14:17:14.029Z,65.00
2018-11-03T14:19:42.569Z,65.30
2018-11-03T14:22:10.593Z,64.90
2018-11-03T14:24:38.466Z,65.00
2018-11-03T14:27:07.923Z,65.10
2018-11-03T14:29:39.600Z,64.90
2018-11-03T14:32:07.995Z,64.80
2018-11-03T14:34:38.060Z,65.20
2018-11-03T14:37:08.495Z,65.80
2018-11-03T14:39:43.779Z,65.20
2018-11-03T14:42:13.495Z,64.80
2018-11-03T14:44:42.525Z,65.10
2018-11-03T14:47:11.790Z,65.00
2018-11-03T14:49:46.820Z,64.90
2018-11-03T14:52:18.835Z,65.20
2018-11-03T14:54:52.504Z,65.10
2018-11-03T14:57:24.973Z,65.20
2018-11-03T14:59:55.760Z,65.20
2018-11-03T15:02:27.668Z,65.20
2018-11-03T15:05:08.377Z,65.00
2018-11-03T15:07:42.775Z,65.20
2018-11-03T15:10:13.605Z,65.20
2018-11-03T15:12:42.949Z,65.30
2018-11-03T15:15:13.503Z,65.20
2018-11-03T15:17:42.575Z,65.30
2018-11-03T15:20:13.487Z,65.40
2018-11-03T15:22:43.040Z,65.20
2018-11-03T15:25:11.115Z,65.30
2018-11-03T15:27:42.424Z,65.10
2018-11-03T15:30:17.025Z,65.00
2018-11-03T15:32:51.438Z,65.00
2018-11-03T15:35:23.588Z,65.20
2018-11-03T15:38:01.108Z,64.90
2018-11-03T15:40:29.301Z,65.10
2018-11-03T15:43:07.931Z,65.30
2018-11-03T15:45:37.320Z,65.20
2018-11-03T15:51:08.064Z,65.40
2018-11-03T15:53:41.237Z,65.20
2018-11-03T16:01:40.401Z,65.50
2018-11-03T16:04:13.335Z,65.50
2018-11-03T16:06:43.935Z,65.40
2018-11-03T16:09:17.555Z,65.20
2018-11-03T16:11:51.102Z,65.00
2018-11-03T16:14:19.239Z,65.40
2018-11-03T16:23:21.507Z,66.00
2018-11-03T16:25:57.048Z,65.30
2018-11-03T16:28:24.725Z,65.40
2018-11-03T16:30:55.279Z,65.30
2018-11-03T16:33:23.205Z,65.00
2018-11-03T16:36:06.279Z,64.90
2018-11-03T16:38:35.897Z,65.00
2018-11-03T16:41:03.674Z,64.90
2018-11-03T16:43:32.538Z,65.10
2018-11-03T16:46:00.453Z,65.10
2018-11-03T16:48:28.322Z,65.10
2018-11-03T16:50:57.548Z,65.10
2018-11-03T16:53:29.755Z,64.90
2018-11-03T16:56:04.608Z,64.50
2018-11-03T16:58:35.304Z,64.80
2018-11-03T17:03:46.755Z,64.80
2018-11-03T17:06:20.727Z,64.80
2018-11-03T17:08:52.880Z,64.90
2018-11-03T17:11:22.580Z,64.70
2018-11-03T17:13:54.632Z,64.80
2018-11-03T17:16:28.772Z,64.70
2018-11-03T17:19:12.606Z,64.70
2018-11-03T17:21:51.716Z,64.70
2018-11-03T17:24:24.237Z,64.70
2018-11-03T17:26:57.630Z,64.70
2018-11-03T17:38:46.288Z,64.60
2018-11-03T17:47:41.794Z,64.80
2018-11-03T17:53:03.927Z,65.20
2018-11-03T17:58:32.859Z,65.00
2018-11-03T18:01:13.927Z,64.70
2018-11-03T18:03:48.747Z,64.80
2018-11-03T18:06:23.586Z,64.50
2018-11-03T18:16:29.299Z,65.00
2018-11-03T18:19:03.529Z,65.10
2018-11-03T18:24:33.455Z,64.90
2018-11-03T18:51:36.729Z,64.90
2018-11-03T18:54:11.515Z,64.20
2018-11-03T18:56:40.235Z,64.80
2018-11-03T18:59:08.919Z,64.50
2018-11-03T19:05:18.055Z,64.40
2018-11-03T19:07:57.816Z,64.60
2018-11-03T19:10:28.860Z,64.50
2018-11-03T19:13:09.455Z,64.50
